Sevier River / Vermillion Canal




Date Battery Voltage (V) Canal Stage above Flume (ft) Canal Stage below Flume (ft) Canal Flow (cfs) Canal Gate Height (%) River Stage at Dam (ft) River Flow at Dam (cfs) Pond Stage at Gate (ft)
07/01/2017 13.03 0.94 1.68 28.9 0.30 26 0.30
07/02/2017 13.02 0.90 1.59 26.8 0.43 44 0.43
07/03/2017 13.02 0.89 1.58 26.3 0.71 94 0.71
07/04/2017 12.97 0.89 1.58 26.6 0.66 84 0.66
07/05/2017 13.00 0.91 1.60 27.6 0.43 45 0.43
07/06/2017 13.03 0.90 1.59 27.1 0.31 27 0.31
07/07/2017 13.02 0.89 1.57 26.5 0.23 18 0.23
07/08/2017 13.03 0.89 1.58 26.5 0.29 25 0.29
07/09/2017 13.03 0.89 1.60 26.4 0.39 38 0.39
07/10/2017 12.96 0.90 1.60 27.0 0.65 82 0.65
07/11/2017 13.02 0.89 1.59 26.5 0.68 89 0.68
07/12/2017 12.99 0.89 1.60 26.6 0.72 97 0.72
07/13/2017 12.96 0.91 1.62 27.4 0.65 83 0.65
07/14/2017 13.07 0.90 1.62 26.9 0.61 75 0.61
07/15/2017 13.02 0.91 1.63 27.4 0.52 59 0.52
07/16/2017 13.06 0.90 1.63 26.8 0.37 35 0.37
07/17/2017 13.00 0.89 1.62 26.8 0.36 34 0.36
07/18/2017 13.00 0.91 1.65 27.4 0.41 41 0.41
07/19/2017 12.98 0.91 1.65 27.6 0.28 23 0.28
07/20/2017 13.00 0.89 1.64 26.5 0.61 75 0.61
07/21/2017 13.04 0.90 1.65 27.0 0.58 70 0.58
07/22/2017 13.00 0.90 1.66 27.0 0.67 85 0.67
07/23/2017 13.02 0.91 1.64 27.6 0.57 66 0.57
07/24/2017 12.99 0.90 1.60 27.2 0.68 87 0.68
07/25/2017 13.05 0.91 1.57 27.3 0.73 96 0.73
07/26/2017 13.03 0.91 1.54 27.5 0.68 86 0.68
07/27/2017 13.01 0.91 1.48 27.3 0.66 82 0.66
07/28/2017 13.04 0.90 1.40 26.8 0.51 56 0.51
07/29/2017 13.00 0.90 1.41 27.1 0.49 53 0.49
07/30/2017 13.01 0.90 1.39 26.8 0.54 60 0.54
07/31/2017 12.97 0.91 1.38 27.3 0.42 43 0.42
Average 27.0 61
Maximum 28.9 97
Minimum 26.3 18
Total Volume (AF) 1,662.7 3,724